• Join FlightAware (Why Join?)
  • Login
  • US Flag 
08:31PM EDT


 

Airport Tracker/Info


-or-


 

Live Flight TrackerFlight Track Log ✈ N201AK ✈ 18-Sep-2013 ✈ KSBY - KJYO

Flight Track Log - Related Links

Times and Time Zones

All times are in EDT time to prevent confusion due to time zone crossing. See the N201AK flight status page for this flight to view local times or setup timezone preferences in your user account.

Time Position Orientation Groundspeed Altitude Reporting Facility
EDT Latitude Longitude Course Direction KTS MPH feet Rate Location/Type
03:17PM 38.3650 -75.5150 315° West 85 98 1,000  Level Washington Center
03:17PM 38.3711 -75.5228 315° West 88 101 1,200 480 Climbing Washington Center
03:18PM 38.3900 -75.5494 312° West 90 104 1,800 480 Climbing Washington Center
03:19PM 38.4067 -75.5783 306° West 94 108 2,200 540 Climbing Washington Center
03:20PM 38.4256 -75.5997 318° Northwest 90 104 3,000 660 Climbing Washington Center
03:21PM 38.4400 -75.6236 308° West 90 104 3,600 480 Climbing Washington Center
03:22PM 38.4567 -75.6472 312° West 91 105 4,100 480 Climbing Washington Center
03:23PM 38.4756 -75.6739 312° West 90 104 4,700 540 Climbing Washington Center
03:24PM 38.4922 -75.6953 315° West 90 104 5,200 480 Climbing Washington Center
03:25PM 38.5089 -75.7192 312° West 92 106 5,700 300 Climbing Washington Center
03:26PM 38.5233 -75.7403 311° West 89 102 5,900 60 Climbing Washington Center
03:28PM 38.5667 -75.8000 313° West 143 165 5,900  Level Potomac TRACON
03:29PM 38.6000 -75.8500 310° West 148 170 5,900  Level Potomac TRACON
03:30PM 38.6333 -75.8833 322° Northwest 148 170 5,900  Level Potomac TRACON
03:31PM 38.6500 -75.9167 303° West 144 166 5,900  Level Potomac TRACON
03:32PM 38.6833 -75.9500 322° Northwest 145 167 5,900  Level Potomac TRACON
03:33PM 38.7000 -76.0000 293° West 144 166 5,900  Level Potomac TRACON
03:34PM 38.7333 -76.0333 322° Northwest 144 166 5,900  Level Potomac TRACON
03:35PM 38.7667 -76.0667 322° Northwest 142 163 5,900  Level Potomac TRACON
03:36PM 38.7833 -76.1000 303° West 144 166 5,900  Level Potomac TRACON
03:37PM 38.8167 -76.1500 311° West 145 167 5,900 -60 Level Potomac TRACON
03:38PM 38.8333 -76.1833 303° West 148 170 5,800 -300 Descending Potomac TRACON
03:39PM 38.8167 -76.2500 252° West 165 190 5,300 -540 Descending Potomac TRACON
03:40PM 38.8000 -76.3000 247° West 168 193 4,800 -540 Descending Potomac TRACON
03:41PM 38.8000 -76.3500 270° West 163 188 4,300 -480 Descending Potomac TRACON
03:42PM 38.7833 -76.4167 252° West 167 192 3,900 -120 Descending Potomac TRACON
03:44PM 38.8422 -76.4503 333° Northwest  Level FlightAware Approximate
03:47PM 38.7167 -76.6333 333° Northwest 142 163 3,900  Level Potomac TRACON
03:48PM 38.7000 -76.6833 247° West 143 165 3,900  Level Potomac TRACON
03:49PM 38.6667 -76.7167 218° Southwest 143 165 3,900  Level Potomac TRACON
03:50PM 38.6500 -76.7667 247° West 139 160 3,900  Level Potomac TRACON
03:51PM 39.1129 -76.6151 333° Northwest  Level FlightAware Approximate
03:51PM 38.6167 -76.8000 218° Southwest 142 163 3,900  Level Potomac TRACON
03:52PM 39.1513 -76.6400 333° Northwest  Level FlightAware Approximate
03:52PM 38.6000 -76.8500 247° West 140 161 3,900  Level Potomac TRACON
03:53PM 38.5833 -76.8833 237° Southwest 148 170 3,900  Level Potomac TRACON
03:54PM 38.5500 -76.9167 218° Southwest 145 167 3,900  Level Potomac TRACON
03:55PM 38.5333 -76.9667 247° West 144 166 3,900  Level Potomac TRACON
03:56PM 38.5000 -77.0000 218° Southwest 150 173 3,900  Level Potomac TRACON
03:57PM 38.4833 -77.0500 247° West 150 173 3,900  Level Potomac TRACON
03:58PM 38.4500 -77.1000 230° Southwest 151 174 3,900  Level Potomac TRACON
03:59PM 38.4333 -77.1333 237° Southwest 149 171 3,900  Level Potomac TRACON
04:00PM 38.4167 -77.1833 247° West 147 169 3,900  Level Potomac TRACON
04:01PM 38.4167 -77.2333 270° West 145 167 3,900  Level Potomac TRACON
04:02PM 38.4167 -77.2833 270° West 148 170 3,900  Level Potomac TRACON
04:03PM 38.4167 -77.3333 270° West 143 165 3,900  Level Potomac TRACON
04:04PM 38.4000 -77.3833 247° West 140 161 3,900  Level Potomac TRACON
04:05PM 38.4000 -77.4333 270° West 147 169 3,900  Level Potomac TRACON
04:06PM 38.4167 -77.4833 293° West 144 166 3,900  Level Potomac TRACON
04:07PM 38.4500 -77.5167 322° Northwest 149 171 3,900  Level Potomac TRACON
04:08PM 38.4833 -77.5500 322° Northwest 152 175 3,900  Level Potomac TRACON
04:09PM 38.5000 -77.5833 303° West 152 175 3,900  Level Potomac TRACON
04:10PM 38.5333 -77.6167 322° Northwest 148 170 3,900  Level Potomac TRACON
04:11PM 38.5667 -77.6667 310° West 152 175 3,900  Level Potomac TRACON
04:12PM 38.6000 -77.7000 322° Northwest 148 170 3,900  Level Potomac TRACON
04:13PM 38.6333 -77.7333 322° Northwest 145 167 3,900  Level Potomac TRACON
04:15PM 38.6665 -77.6619 59° Northeast  Level FlightAware Approximate
04:15PM 38.7000 -77.8000 59° Northeast 149 171 3,900  Level Potomac TRACON
04:16PM 38.7333 -77.8333 322° Northwest 153 176 3,900  Level Potomac TRACON
04:17PM 38.7500 -77.8667 303° West 154 177 3,900  Level Potomac TRACON
04:18PM 38.7833 -77.9000 322° Northwest 154 177 3,900  Level Potomac TRACON
04:19PM 38.8333 -77.9000 360° North 151 174 3,900  Level Potomac TRACON
04:20PM 38.8833 -77.9000 360° North 153 176 3,900  Level Potomac TRACON
04:21PM 38.9167 -77.8833 21° North 152 175 3,900 -60 Level Potomac TRACON
04:22PM 38.9667 -77.8833 360° North 153 176 3,800 -180 Descending Potomac TRACON
04:23PM 39.0000 -77.8667 21° North 157 181 3,600 -360 Descending Potomac TRACON
04:24PM 39.0333 -77.8500 21° North 157 181 3,200 -420 Descending Potomac TRACON
04:25PM 39.0667 -77.8000 49° Northeast 156 180 2,800 -420 Descending Potomac TRACON
04:26PM 39.0833 -77.7667 57° Northeast 152 175 2,400 -480 Descending Potomac TRACON